Brentwood, NC (27616)

11:41 PM EST on December 27, 2014 (GMT -0500)
Will-O-Dean Acres | Change Station
CLOSE
Current Station
Personal Weather Station
Location: Raleigh, NC
Elevation: 301 ft
Nearby Weather Stations

Elev 301 ft 35.86 °N, 78.56 °W | Updated 1 minute ago

Partly Cloudy
Partly Cloudy
50.1 °F
Feels Like 50.1 °F
N
0.0
Wind Variable Wind from SSE
Gusts 0.0 mph

Today
High -- | Low -- °F
--% Chance of Precip.
Yesterday
High -- | Low -- °F
Precip. -- in
7:23 AM 5:07 PM
Waxing Crescent, 43% visible
Pressure 30.20 in
Visibility 10.0 miles
Clouds Few 13000 ft
Mostly Cloudy 23000 ft
Dew Point 46 °F
Humidity 84%
Rainfall 0.00 in
Snow Depth Not available.
UV 0 out of 12
Pollen 1.40 out of 12
Air Quality Not available.
Flu Activity Not available.
METAR KRDU 280351Z 19004KT 10SM FEW130 BKN230 11/03 A3020 RMK AO2 SLP226 T01060033

More Conditions Fewer Conditions

Pressure 30.20 in
Visibility 10.0 miles
Clouds Few 13000 ft
Mostly Cloudy 23000 ft
Dew Point 46 °F
Humidity 84%
Rainfall 0.00 in
Snow Depth Not available.
UV 0 out of 12
Pollen 1.40 out of 12
Air Quality Not available.
Flu Activity Not available.
METAR KRDU 280351Z 19004KT 10SM FEW130 BKN230 11/03 A3020 RMK AO2 SLP226 T01060033

More Conditions Fewer Conditions

10-Day Weather Forecast

Almanac

Astronomy

Dec. 27, 2014 Rise Set
Actual Time
Civil Twilight
Nautical Twilight
Astronomical Twilight
Moon
Length of Visible Light
Length of Day
Tomorrow will be .
, % of the Moon is Illuminated

Today's Extremes

State Highs State Lows

Community

WunderPhotos

Upload Photos

1,781,196 photos uploaded!

WunderBlogs® & News

Nearby

Air Quality

  Air Quality AQ Index Pollutant
Not available.

Snow Depth

Station Depth Elevation

Earthquake Activity

City Distance Mag. Time & Date
Minimum magnitude displayed is 2.5.

Coastal Water Temperatures

Place Temperature

Nearby Weather Stations